Time,TemperatureF,DewpointF,PressureIn,WindDirection,WindDirectionDegrees,WindSpeedMPH,WindSpeedGustMPH,Humidity,HourlyPrecipIn,Conditions,Clouds,dailyrainin,SolarRadiationWatts/m^2,SoftwareType,DateUTC
2013-01-10 00:10:00,35.4,29.5,23.19,WSW,252,7.0,11.0,79,0.00,,,0.00,0,Wunderground v.1.15,2013-01-10 05:10:00,
2013-01-10 00:20:00,35.4,29.5,23.19,West,269,7.0,7.0,79,0.00,,,0.00,0,Wunderground v.1.15,2013-01-10 05:20:00,
2013-01-10 00:30:00,35.4,29.5,23.19,West,274,6.0,9.0,79,0.00,,,0.00,0,Wunderground v.1.15,2013-01-10 05:30:00,
2013-01-10 00:40:00,35.4,29.5,23.20,WSW,254,6.0,6.0,79,0.00,,,0.00,0,Wunderground v.1.15,2013-01-10 05:40:00,
2013-01-10 00:50:00,35.4,29.5,23.20,WSW,252,6.0,10.0,79,0.00,,,0.00,0,Wunderground v.1.15,2013-01-10 05:50:00,
2013-01-10 01:10:00,35.4,29.2,23.20,WSW,254,7.0,7.0,78,0.00,,,0.01,0,Wunderground v.1.15,2013-01-10 06:10:00,
2013-01-10 01:20:00,35.2,29.3,23.21,West,280,6.0,10.0,79,0.00,,,0.01,0,Wunderground v.1.15,2013-01-10 06:20:00,
2013-01-10 01:40:00,36.1,28.6,23.21,WNW,296,6.0,6.0,74,0.00,,,0.01,0,Wunderground v.1.15,2013-01-10 06:40:00,
2013-01-10 01:50:00,36.9,28.0,23.22,West,273,8.0,10.0,70,0.00,,,0.01,0,Wunderground v.1.15,2013-01-10 06:50:00,
2013-01-10 02:01:00,37.5,26.4,23.22,WSW,238,8.0,8.0,64,0.00,,,0.01,0,Wunderground v.1.15,2013-01-10 07:01:00,
2013-01-10 02:10:00,37.7,26.6,23.22,WNW,297,8.0,8.0,64,0.00,,,0.01,0,Wunderground v.1.15,2013-01-10 07:10:00,
2013-01-10 02:20:00,37.5,26.4,23.22,NW,319,8.0,8.0,64,0.00,,,0.01,0,Wunderground v.1.15,2013-01-10 07:20:00,
2013-01-10 02:30:00,37.2,26.1,23.22,West,277,7.0,9.0,64,0.00,,,0.01,0,Wunderground v.1.15,2013-01-10 07:30:00,
2013-01-10 02:40:00,37.2,26.1,23.22,NNW,329,8.0,8.0,64,0.00,,,0.01,0,Wunderground v.1.15,2013-01-10 07:40:00,
2013-01-10 02:50:00,36.9,25.9,23.23,WNW,292,8.0,8.0,64,0.00,,,0.01,0,Wunderground v.1.15,2013-01-10 07:50:00,
2013-01-10 03:10:00,36.9,25.1,23.23,WNW,284,9.0,9.0,62,0.00,,,0.01,0,Wunderground v.1.15,2013-01-10 08:10:00,
2013-01-10 03:20:00,36.8,25.8,23.23,NW,304,8.0,8.0,64,0.00,,,0.01,0,Wunderground v.1.15,2013-01-10 08:20:00,
2013-01-10 03:40:00,36.4,26.1,23.24,NW,304,6.0,6.0,66,0.00,,,0.01,0,Wunderground v.1.15,2013-01-10 08:40:00,
2013-01-10 03:50:00,36.2,26.3,23.24,WNW,284,6.0,6.0,67,0.00,,,0.01,0,Wunderground v.1.15,2013-01-10 08:50:00,
2013-01-10 04:00:00,36.1,26.6,23.24,WNW,298,6.0,6.0,68,0.00,,,0.01,0,Wunderground v.1.15,2013-01-10 09:00:00,
2013-01-10 04:10:00,35.9,26.7,23.24,WNW,301,5.0,5.0,69,0.00,,,0.01,0,Wunderground v.1.15,2013-01-10 09:10:00,
2013-01-10 04:20:00,36.2,26.6,23.24,WNW,301,6.0,6.0,68,0.00,,,0.01,0,Wunderground v.1.15,2013-01-10 09:20:00,
2013-01-10 04:30:00,36.7,26.8,23.24,NNW,331,8.0,8.0,67,0.00,,,0.02,0,Wunderground v.1.15,2013-01-10 09:30:00,
2013-01-10 04:40:00,36.5,26.6,23.24,WNW,290,6.0,6.0,67,0.00,,,0.02,0,Wunderground v.1.15,2013-01-10 09:40:00,
2013-01-10 04:50:00,36.4,26.5,23.25,WNW,303,5.0,5.0,67,0.00,,,0.02,0,Wunderground v.1.15,2013-01-10 09:50:00,
2013-01-10 05:10:00,36.4,26.8,23.25,WNW,292,6.0,7.0,68,0.00,,,0.02,0,Wunderground v.1.15,2013-01-10 10:10:00,
2013-01-10 05:20:00,36.2,26.6,23.25,NW,307,6.0,6.0,68,0.00,,,0.02,0,Wunderground v.1.15,2013-01-10 10:20:00,
2013-01-10 05:40:00,36.1,26.9,23.25,NW,319,3.0,3.0,69,0.00,,,0.02,0,Wunderground v.1.15,2013-01-10 10:40:00,
2013-01-10 05:50:00,36.1,26.9,23.25,NW,314,4.0,4.0,69,0.00,,,0.02,0,Wunderground v.1.15,2013-01-10 10:50:00,
2013-01-10 06:01:00,36.2,26.6,23.25,West,274,3.0,3.0,68,0.00,,,0.02,0,Wunderground v.1.15,2013-01-10 11:01:00,
2013-01-10 06:10:00,36.2,26.3,23.26,WNW,297,4.0,4.0,67,0.00,,,0.02,0,Wunderground v.1.15,2013-01-10 11:10:00,
2013-01-10 06:20:00,36.4,26.5,23.26,WNW,284,4.0,4.0,67,0.00,,,0.02,0,Wunderground v.1.15,2013-01-10 11:20:00,
2013-01-10 06:31:00,36.5,26.6,23.26,NW,307,3.0,3.0,67,0.00,,,0.02,0,Wunderground v.1.15,2013-01-10 11:31:00,
2013-01-10 06:40:00,36.4,26.1,23.26,NW,314,4.0,5.0,66,0.00,,,0.02,0,Wunderground v.1.15,2013-01-10 11:40:00,
2013-01-10 06:50:00,36.4,26.5,23.26,NNW,340,4.0,7.0,67,0.00,,,0.02,0,Wunderground v.1.15,2013-01-10 11:50:00,
2013-01-10 07:10:00,36.5,26.2,23.26,WNW,302,6.0,7.0,66,0.00,,,0.02,0,Wunderground v.1.15,2013-01-10 12:10:00,
2013-01-10 07:20:00,36.5,26.2,23.27,WNW,293,6.0,8.0,66,0.00,,,0.02,0,Wunderground v.1.15,2013-01-10 12:20:00,
2013-01-10 07:31:00,36.7,26.4,23.27,NW,305,5.0,10.0,66,0.00,,,0.02,0,Wunderground v.1.15,2013-01-10 12:31:00,
2013-01-10 07:40:00,36.5,26.2,23.27,WSW,248,5.0,5.0,66,0.00,,,0.02,7,Wunderground v.1.15,2013-01-10 12:40:00,
2013-01-10 07:50:00,36.4,26.1,23.28,NW,317,5.0,9.0,66,0.00,,,0.02,11,Wunderground v.1.15,2013-01-10 12:50:00,
2013-01-10 08:10:00,36.4,26.1,23.28,North,351,4.0,4.0,66,0.00,,,0.02,16,Wunderground v.1.15,2013-01-10 13:10:00,
2013-01-10 08:20:00,36.4,26.1,23.28,West,269,4.0,7.0,66,0.00,,,0.02,26,Wunderground v.1.15,2013-01-10 13:20:00,
2013-01-10 08:31:00,36.4,26.1,23.28,WNW,300,2.0,2.0,66,0.00,,,0.02,30,Wunderground v.1.15,2013-01-10 13:31:00,
2013-01-10 08:40:00,36.5,26.2,23.28,West,279,1.0,5.0,66,0.00,,,0.02,40,Wunderground v.1.15,2013-01-10 13:40:00,
2013-01-10 08:50:00,36.8,26.5,23.29,WNW,292,3.0,3.0,66,0.00,,,0.02,37,Wunderground v.1.15,2013-01-10 13:50:00,
2013-01-10 09:10:00,37.1,26.0,23.29,West,265,3.0,5.0,64,0.00,,,0.02,76,Wunderground v.1.15,2013-01-10 14:10:00,
2013-01-10 09:20:00,37.1,26.0,23.29,SW,227,3.0,3.0,64,0.00,,,0.02,105,Wunderground v.1.15,2013-01-10 14:20:00,
2013-01-10 09:30:00,37.2,26.1,23.29,NW,307,3.0,3.0,64,0.00,,,0.02,139,Wunderground v.1.15,2013-01-10 14:30:00,
2013-01-10 09:40:00,37.4,25.9,23.29,WNW,287,2.0,4.0,63,0.00,,,0.02,128,Wunderground v.1.15,2013-01-10 14:40:00,
2013-01-10 09:50:00,37.4,25.9,23.30,WSW,257,4.0,4.0,63,0.00,,,0.02,142,Wunderground v.1.15,2013-01-10 14:50:00,
2013-01-10 10:10:00,37.2,26.5,23.30,WNW,296,4.0,5.0,65,0.00,,,0.02,163,Wunderground v.1.15,2013-01-10 15:10:00,
2013-01-10 10:20:00,37.1,26.8,23.30,NW,304,4.0,5.0,66,0.00,,,0.02,160,Wunderground v.1.15,2013-01-10 15:20:00,
2013-01-10 10:40:00,37.1,26.4,23.30,WSW,256,2.0,2.0,65,0.00,,,0.02,185,Wunderground v.1.15,2013-01-10 15:40:00,
2013-01-10 10:50:00,37.7,24.6,23.30,NNE,28,3.0,4.0,59,0.00,,,0.02,139,Wunderground v.1.15,2013-01-10 15:50:00,
2013-01-10 11:10:00,38.1,23.8,23.31,NNW,342,6.0,6.0,56,0.00,,,0.02,165,Wunderground v.1.15,2013-01-10 16:10:00,
2013-01-10 11:20:00,37.9,23.2,23.31,NNW,343,7.0,8.0,55,0.00,,,0.02,169,Wunderground v.1.15,2013-01-10 16:20:00,
2013-01-10 11:31:00,37.7,23.0,23.31,North,351,6.0,6.0,55,0.00,,,0.02,179,Wunderground v.1.15,2013-01-10 16:31:00,
2013-01-10 11:40:00,37.9,22.3,23.31,NW,323,4.0,4.0,53,0.00,,,0.02,221,Wunderground v.1.15,2013-01-10 16:40:00,
2013-01-10 11:50:00,38.1,22.9,23.31,NW,308,4.0,4.0,54,0.00,,,0.02,209,Wunderground v.1.15,2013-01-10 16:50:00,
2013-01-10 12:10:00,39.1,22.9,23.30,North,351,6.0,7.0,52,0.00,,,0.02,534,Wunderground v.1.15,2013-01-10 17:10:00,
2013-01-10 12:20:00,39.5,23.8,23.30,North,11,4.0,5.0,53,0.00,,,0.02,381,Wunderground v.1.15,2013-01-10 17:20:00,
2013-01-10 12:40:00,38.8,23.6,23.31,NW,306,6.0,7.0,54,0.00,,,0.02,134,Wunderground v.1.15,2013-01-10 17:40:00,
2013-01-10 12:50:00,38.2,23.4,23.31,NW,306,4.0,4.0,55,0.00,,,0.02,283,Wunderground v.1.15,2013-01-10 17:50:00,
2013-01-10 13:10:00,39.0,22.8,23.31,NNW,327,5.0,5.0,52,0.00,,,0.02,448,Wunderground v.1.15,2013-01-10 18:10:00,
2013-01-10 13:20:00,39.4,23.2,23.31,NW,310,5.0,5.0,52,0.00,,,0.02,364,Wunderground v.1.15,2013-01-10 18:20:00,
2013-01-10 13:40:00,39.1,22.9,23.31,NNW,341,4.0,4.0,52,0.00,,,0.02,422,Wunderground v.1.15,2013-01-10 18:40:00,
2013-01-10 13:50:00,39.1,22.9,23.31,NW,311,4.0,4.0,52,0.00,,,0.02,186,Wunderground v.1.15,2013-01-10 18:50:00,
2013-01-10 14:01:00,38.7,22.6,23.31,NW,321,4.0,7.0,52,0.00,,,0.02,338,Wunderground v.1.15,2013-01-10 19:01:00,
2013-01-10 14:10:00,38.5,22.8,23.31,NW,306,4.0,4.0,53,0.00,,,0.02,53,Wunderground v.1.15,2013-01-10 19:10:00,
2013-01-10 14:20:00,37.7,22.5,23.32,NNW,330,4.0,5.0,54,0.00,,,0.02,79,Wunderground v.1.15,2013-01-10 19:20:00,
2013-01-10 14:31:00,37.4,22.7,23.32,WNW,288,4.0,6.0,55,0.00,,,0.02,69,Wunderground v.1.15,2013-01-10 19:31:00,
2013-01-10 14:40:00,37.2,22.9,23.32,West,269,4.0,4.0,56,0.00,,,0.02,79,Wunderground v.1.15,2013-01-10 19:40:00,
2013-01-10 14:50:00,37.1,22.8,23.32,NNW,345,5.0,5.0,56,0.00,,,0.02,63,Wunderground v.1.15,2013-01-10 19:50:00,
2013-01-10 15:10:00,36.8,23.0,23.32,WNW,303,4.0,4.0,57,0.00,,,0.02,67,Wunderground v.1.15,2013-01-10 20:10:00,
2013-01-10 15:20:00,36.9,23.1,23.33,West,268,3.0,5.0,57,0.00,,,0.02,67,Wunderground v.1.15,2013-01-10 20:20:00,
2013-01-10 15:40:00,36.9,23.1,23.33,NW,314,4.0,4.0,57,0.00,,,0.02,35,Wunderground v.1.15,2013-01-10 20:40:00,
2013-01-10 15:50:00,36.7,23.3,23.33,NW,319,2.0,2.0,58,0.00,,,0.02,28,Wunderground v.1.15,2013-01-10 20:50:00,
2013-01-10 16:10:00,36.4,23.4,23.33,NW,323,2.0,2.0,59,0.00,,,0.02,9,Wunderground v.1.15,2013-01-10 21:10:00,
2013-01-10 16:20:00,36.2,23.2,23.33,NNW,336,2.0,4.0,59,0.00,,,0.02,0,Wunderground v.1.15,2013-01-10 21:20:00,
2013-01-10 16:40:00,35.9,23.0,23.33,North,360,1.0,1.0,59,0.00,,,0.02,0,Wunderground v.1.15,2013-01-10 21:40:00,
2013-01-10 16:50:00,35.8,22.5,23.33,North,360,2.0,2.0,58,0.00,,,0.02,0,Wunderground v.1.15,2013-01-10 21:50:00,
2013-01-10 17:01:00,35.7,22.8,23.33,North,360,1.0,1.0,59,0.00,,,0.02,0,Wunderground v.1.15,2013-01-10 22:01:00,
2013-01-10 17:10:00,35.5,23.0,23.33,North,360,1.0,1.0,60,0.00,,,0.02,0,Wunderground v.1.15,2013-01-10 22:10:00,
2013-01-10 17:20:00,35.4,23.3,23.33,North,360,1.0,2.0,61,0.00,,,0.02,0,Wunderground v.1.15,2013-01-10 22:20:00,
2013-01-10 17:40:00,35.1,23.0,23.33,North,360,2.0,5.0,61,0.00,,,0.02,0,Wunderground v.1.15,2013-01-10 22:40:00,
2013-01-10 17:50:00,35.1,22.6,23.33,North,360,2.0,2.0,60,0.00,,,0.02,0,Wunderground v.1.15,2013-01-10 22:50:00,
2013-01-10 18:10:00,34.8,22.7,23.33,North,360,1.0,1.0,61,0.00,,,0.02,0,Wunderground v.1.15,2013-01-10 23:10:00,
2013-01-10 18:20:00,34.5,22.8,23.33,North,360,1.0,1.0,62,0.00,,,0.02,0,Wunderground v.1.15,2013-01-10 23:20:00,
2013-01-10 18:40:00,33.9,21.9,23.33,North,9,1.0,1.0,61,0.00,,,0.02,0,Wunderground v.1.15,2013-01-10 23:40:00,
2013-01-10 18:50:00,33.4,21.0,23.33,North,9,0.0,2.0,60,0.00,,,0.02,0,Wunderground v.1.15,2013-01-10 23:50:00,
2013-01-10 19:01:00,33.1,21.1,23.33,North,9,1.0,1.0,61,0.00,,,0.02,0,Wunderground v.1.15,2013-01-11 00:01:00,
2013-01-10 19:10:00,32.6,21.4,23.33,North,9,0.0,0.0,63,0.00,,,0.02,0,Wunderground v.1.15,2013-01-11 00:10:00,
2013-01-10 19:20:00,30.8,21.5,23.33,North,9,0.0,4.0,68,0.00,,,0.02,0,Wunderground v.1.15,2013-01-11 00:20:00,
2013-01-10 19:31:00,28.9,21.7,23.33,North,9,0.0,0.0,74,0.00,,,0.02,0,Wunderground v.1.15,2013-01-11 00:31:00,
2013-01-10 19:40:00,28.3,21.4,23.34,NE,37,0.0,0.0,75,0.00,,,0.02,0,Wunderground v.1.15,2013-01-11 00:40:00,
2013-01-10 19:50:00,27.5,20.6,23.34,NE,37,0.0,0.0,75,0.00,,,0.02,0,Wunderground v.1.15,2013-01-11 00:50:00,
2013-01-10 20:10:00,27.5,20.9,23.34,NE,38,0.0,0.0,76,0.00,,,0.02,0,Wunderground v.1.15,2013-01-11 01:10:00,
2013-01-10 20:20:00,27.5,20.9,23.34,NE,38,0.0,0.0,76,0.00,,,0.02,0,Wunderground v.1.15,2013-01-11 01:20:00,
2013-01-10 20:31:00,27.4,20.8,23.34,NE,37,0.0,0.0,76,0.00,,,0.02,0,Wunderground v.1.15,2013-01-11 01:31:00,
2013-01-10 20:40:00,26.8,20.6,23.34,NE,38,0.0,0.0,77,0.00,,,0.02,0,Wunderground v.1.15,2013-01-11 01:40:00,
2013-01-10 20:50:00,26.5,20.6,23.34,NE,38,0.0,0.0,78,0.00,,,0.02,0,Wunderground v.1.15,2013-01-11 01:50:00,
2013-01-10 21:10:00,26.0,20.7,23.34,NE,37,0.0,0.0,80,0.00,,,0.02,0,Wunderground v.1.15,2013-01-11 02:10:00,
2013-01-10 21:20:00,26.0,21.0,23.34,NE,37,0.0,0.0,81,0.00,,,0.02,0,Wunderground v.1.15,2013-01-11 02:20:00,
2013-01-10 21:40:00,25.6,20.6,23.34,NE,38,0.0,0.0,81,0.00,,,0.02,0,Wunderground v.1.15,2013-01-11 02:40:00,
2013-01-10 21:50:00,25.2,20.5,23.33,NE,38,0.0,0.0,82,0.00,,,0.02,0,Wunderground v.1.15,2013-01-11 02:50:00,
2013-01-10 22:01:00,24.9,20.5,23.33,NE,38,0.0,0.0,83,0.00,,,0.02,0,Wunderground v.1.15,2013-01-11 03:01:00,
2013-01-10 22:10:00,24.6,20.2,23.33,NE,38,0.0,0.0,83,0.00,,,0.02,0,Wunderground v.1.15,2013-01-11 03:10:00,
2013-01-10 22:20:00,24.3,20.2,23.33,NE,37,0.0,0.0,84,0.00,,,0.02,0,Wunderground v.1.15,2013-01-11 03:20:00,
2013-01-10 22:40:00,23.4,19.3,23.33,NE,38,0.0,0.0,84,0.00,,,0.02,0,Wunderground v.1.15,2013-01-11 03:40:00,
2013-01-10 22:50:00,23.2,19.6,23.33,NE,38,0.0,0.0,86,0.00,,,0.02,0,Wunderground v.1.15,2013-01-11 03:50:00,
2013-01-10 23:10:00,23.4,20.1,23.33,NE,38,0.0,0.0,87,0.00,,,0.02,0,Wunderground v.1.15,2013-01-11 04:10:00,
2013-01-10 23:20:00,23.5,20.2,23.33,NE,37,0.0,0.0,87,0.00,,,0.02,0,Wunderground v.1.15,2013-01-11 04:20:00,
2013-01-10 23:31:00,22.6,18.8,23.33,NE,38,0.0,0.0,85,0.00,,,0.02,0,Wunderground v.1.15,2013-01-11 04:31:00,
2013-01-10 23:40:00,21.5,17.7,23.33,NE,38,0.0,0.0,85,0.00,,,0.02,0,Wunderground v.1.15,2013-01-11 04:40:00,
2013-01-10 23:50:00,19.4,15.4,23.33,NE,38,0.0,0.0,84,0.00,,,0.02,0,Wunderground v.1.15,2013-01-11 04:50:00,